Time;durP1;ratioP1;P1;durP2;ratioP2;P2;SDS_P1;SDS_P2;PMS_P1;PMS_P2;Temp;Humidity;BMP_temperature;BMP_pressure;BME280_temperature;BME280_humidity;BME280_pressure;Samples;Min_cycle;Max_cycle;Signal;HPM_P1;HPM_P2
2023/01/21 00:01:42;;;;;;;;;8.20;8.20;;;;;;;;5313279;27;8807;-73
2023/01/21 00:04:13;;;;;;;;;6.80;6.80;;;;;;;;5312791;27;8784;-74
2023/01/21 00:06:44;;;;;;;;;9.40;9.20;;;;;;;;5296308;27;8867;-73
2023/01/21 00:09:15;;;;;;;;;7.00;7.00;;;;;;;;5331467;27;8790;-72
2023/01/21 00:11:46;;;;;;;;;7.80;7.80;;;;;;;;5313008;27;8792;-72
2023/01/21 00:14:17;;;;;;;;;7.00;7.00;;;;;;;;5312976;27;8799;-72
2023/01/21 00:16:49;;;;;;;;;8.60;8.60;;;;;;;;5313143;27;8764;-72
2023/01/21 00:19:20;;;;;;;;;13.20;13.20;;;;;;;;5312801;27;8792;-72
2023/01/21 00:21:51;;;;;;;;;11.50;11.50;;;;;;;;5295702;27;8817;-72
2023/01/21 00:24:40;;;;;;;;;12.40;12.40;;;;;;;;5315980;27;10009;-72
2023/01/21 00:27:30;;;;;;;;;14.00;13.60;;;;;;;;5332322;27;8752;-72
2023/01/21 00:30:01;;;;;;;;;6.80;6.80;;;;;;;;5332507;27;8832;-72
2023/01/21 00:32:32;;;;;;;;;6.60;6.60;;;;;;;;5296809;27;8752;-72
2023/01/21 00:35:05;;;;;;;;;7.00;7.00;;;;;;;;5331210;27;8798;-72
2023/01/21 00:37:36;;;;;;;;;7.60;7.00;;;;;;;;5296006;27;8768;-72
2023/01/21 00:40:07;;;;;;;;;6.80;6.40;;;;;;;;5295587;27;8767;-72
2023/01/21 00:42:38;;;;;;;;;7.80;7.80;;;;;;;;5330916;27;8811;-72
2023/01/21 00:45:09;;;;;;;;;6.80;6.80;;;;;;;;5312720;27;8823;-72
2023/01/21 00:47:58;;;;;;;;;11.20;11.20;;;;;;;;5298208;27;8800;-72
2023/01/21 00:50:29;;;;;;;;;19.40;18.60;;;;;;;;5295332;27;8775;-73
2023/01/21 00:53:00;;;;;;;;;16.40;16.40;;;;;;;;5330505;27;8784;-73
2023/01/21 00:55:31;;;;;;;;;16.60;16.60;;;;;;;;5295114;27;8779;-73
2023/01/21 00:58:03;;;;;;;;;10.80;10.80;;;;;;;;5298812;27;8875;-72
2023/01/21 01:01:06;;;;;;;;;11.20;11.20;;;;;;;;5316784;27;8784;-73
2023/01/21 01:03:38;;;;;;;;;8.60;7.00;;;;;;;;5300011;27;8787;-73
2023/01/21 01:06:12;;;;;;;;;6.20;6.20;;;;;;;;5299919;27;8772;-73
2023/01/21 01:08:44;;;;;;;;;7.40;7.40;;;;;;;;5316631;27;8910;-73
2023/01/21 01:11:34;;;;;;;;;7.00;7.00;;;;;;;;5317340;27;8776;-74
2023/01/21 01:14:05;;;;;;;;;8.80;8.80;;;;;;;;5335179;27;8895;-73
2023/01/21 01:16:36;;;;;;;;;9.60;9.60;;;;;;;;5335038;27;8756;-73
2023/01/21 01:19:10;;;;;;;;;18.75;18.75;;;;;;;;5299525;27;8815;-74
2023/01/21 01:21:41;;;;;;;;;16.00;15.60;;;;;;;;5316363;27;11426;-74
2023/01/21 01:24:12;;;;;;;;;6.00;6.00;;;;;;;;5316691;27;8791;-73
2023/01/21 01:26:43;;;;;;;;;7.60;7.40;;;;;;;;5299669;27;8806;-73
2023/01/21 01:29:15;;;;;;;;;6.00;6.00;;;;;;;;5316331;27;8760;-73
2023/01/21 01:32:04;;;;;;;;;7.00;7.00;;;;;;;;5316376;27;8752;-72
2023/01/21 01:34:35;;;;;;;;;6.00;4.00;;;;;;;;5299182;27;8780;-73
2023/01/21 01:37:06;;;;;;;;;13.40;13.40;;;;;;;;5316334;27;8772;-73
2023/01/21 01:39:37;;;;;;;;;12.40;11.00;;;;;;;;5315950;27;8875;-72
2023/01/21 01:42:13;;;;;;;;;12.60;12.60;;;;;;;;5299768;27;8792;-72
2023/01/21 01:45:04;;;;;;;;;9.40;9.40;;;;;;;;5335111;27;8768;-73
2023/01/21 01:47:43;;;;;;;;;6.00;6.00;;;;;;;;5316184;27;8787;-72
2023/01/21 01:50:16;;;;;;;;;3.00;3.00;;;;;;;;5334994;27;8783;-73
2023/01/21 01:52:47;;;;;;;;;7.00;7.00;;;;;;;;5298209;27;9496;-72
2023/01/21 01:55:19;;;;;;;;;6.00;6.00;;;;;;;;5334293;27;8784;-72
2023/01/21 01:57:51;;;;;;;;;7.80;7.00;;;;;;;;5334210;27;9442;-73
2023/01/21 02:00:23;;;;;;;;;6.00;6.00;;;;;;;;5298654;27;9490;-74
2023/01/21 02:05:46;;;;;;;;;8.20;8.20;;;;;;;;5315888;27;8771;-75
2023/01/21 02:08:36;;;;;;;;;5.20;5.20;;;;;;;;5315264;27;8772;-75
2023/01/21 02:11:15;;;;;;;;;9.80;9.80;;;;;;;;5315227;27;8788;-75
2023/01/21 02:13:52;;;;;;;;;9.60;9.60;;;;;;;;5281253;27;8902;-74
2023/01/21 02:16:23;;;;;;;;;5.20;5.20;;;;;;;;5315555;27;8774;-74
2023/01/21 02:19:04;;;;;;;;;4.60;4.60;;;;;;;;5315525;27;8784;-75
2023/01/21 02:21:44;;;;;;;;;6.00;6.00;;;;;;;;5298594;27;8756;-73
2023/01/21 02:24:34;;;;;;;;;9.00;9.00;;;;;;;;5315269;27;8765;-75
2023/01/21 02:27:14;;;;;;;;;5.20;5.20;;;;;;;;5333907;27;8749;-74
2023/01/21 02:30:04;;;;;;;;;3.80;3.80;;;;;;;;5315300;27;8760;-74
2023/01/21 02:33:12;;;;;;;;;4.80;4.80;;;;;;;;5333399;27;8756;-74
2023/01/21 02:36:01;;;;;;;;;7.00;7.00;;;;;;;;5334278;27;8847;-77
2023/01/21 02:38:40;;;;;;;;;1.00;1.00;;;;;;;;5281482;27;8800;-77
2023/01/21 02:41:22;;;;;;;;;5.60;5.60;;;;;;;;5315679;27;8756;-74
2023/01/21 02:44:02;;;;;;;;;8.40;8.40;;;;;;;;5334069;27;8840;-77
2023/01/21 02:46:39;;;;;;;;;4.00;4.00;;;;;;;;5314817;27;8840;-76
2023/01/21 02:49:30;;;;;;;;;3.00;2.20;;;;;;;;5314767;27;8770;-73
2023/01/21 02:52:20;;;;;;;;;102.00;76.00;;;;;;;;5301421;27;8780;-74
2023/01/21 02:54:55;;;;;;;;;7.00;7.00;;;;;;;;5335872;27;8820;-77
2023/01/21 02:57:42;;;;;;;;;2.60;2.60;;;;;;;;5342425;27;8795;-75
2023/01/21 03:00:21;;;;;;;;;7.80;7.80;;;;;;;;5311560;27;8878;-73
2023/01/21 03:03:10;;;;;;;;;4.00;4.00;;;;;;;;5349253;27;8757;-72
2023/01/21 03:06:02;;;;;;;;;6.80;6.80;;;;;;;;5281736;27;8828;-73
2023/01/21 03:08:44;;;;;;;;;5.60;5.60;;;;;;;;5333153;27;8760;-73
2023/01/21 03:11:17;;;;;;;;;6.00;6.00;;;;;;;;5333253;27;8788;-73
2023/01/21 03:16:57;;;;;;;;;3.40;3.40;;;;;;;;5314702;27;8821;-76
2023/01/21 03:19:28;;;;;;;;;12.80;12.80;;;;;;;;5297425;27;8796;-75
2023/01/21 03:22:01;;;;;;;;;7.40;7.40;;;;;;;;5332217;27;8776;-75
2023/01/21 03:24:33;;;;;;;;;6.80;6.80;;;;;;;;5314449;27;9507;-76
2023/01/21 03:27:25;;;;;;;;;5.20;5.20;;;;;;;;5314425;27;8900;-75
2023/01/21 03:30:00;;;;;;;;;3.40;3.40;;;;;;;;5296834;27;8791;-75
2023/01/21 03:32:32;;;;;;;;;5.60;5.60;;;;;;;;5332435;27;8784;-76
2023/01/21 03:35:04;;;;;;;;;7.00;7.00;;;;;;;;5314128;27;8780;-76
2023/01/21 03:37:39;;;;;;;;;6.00;6.00;;;;;;;;5280247;27;8788;-77
2023/01/21 03:40:17;;;;;;;;;7.00;7.00;;;;;;;;5332417;27;8772;-76
2023/01/21 03:42:54;;;;;;;;;7.40;7.40;;;;;;;;5314241;27;8752;-77
2023/01/21 03:45:35;;;;;;;;;6.00;6.00;;;;;;;;5280199;27;8791;-76
2023/01/21 03:48:27;;;;;;;;;6.00;6.00;;;;;;;;5299080;27;8878;-76
2023/01/21 03:51:01;;;;;;;;;5.20;3.00;;;;;;;;5313624;27;8787;-76
2023/01/21 03:53:32;;;;;;;;;4.00;4.00;;;;;;;;5313829;27;8879;-75
2023/01/21 03:56:03;;;;;;;;;3.20;3.20;;;;;;;;5297189;27;8800;-75
2023/01/21 03:58:34;;;;;;;;;5.20;5.20;;;;;;;;5313848;27;8871;-76
2023/01/21 04:01:06;;;;;;;;;4.80;4.80;;;;;;;;5313714;27;8772;-75
2023/01/21 04:03:37;;;;;;;;;6.80;6.80;;;;;;;;5279932;27;8768;-76
2023/01/21 04:06:15;;;;;;;;;7.00;7.00;;;;;;;;5331545;27;9481;-75
2023/01/21 04:08:46;;;;;;;;;7.40;7.40;;;;;;;;5296762;27;8760;-75
2023/01/21 04:11:17;;;;;;;;;3.40;3.40;;;;;;;;5312969;27;8816;-75
2023/01/21 04:13:48;;;;;;;;;7.00;7.00;;;;;;;;5313097;27;8764;-75
2023/01/21 04:16:19;;;;;;;;;2.50;1.00;;;;;;;;5313034;27;8772;-75
2023/01/21 04:19:08;;;;;;;;;3.00;3.00;;;;;;;;5313162;27;8803;-74
2023/01/21 04:21:58;;;;;;;;;5.20;5.20;;;;;;;;5332004;27;8884;-75
2023/01/21 04:24:29;;;;;;;;;4.00;4.00;;;;;;;;5296056;27;9521;-75
2023/01/21 04:27:19;;;;;;;;;6.80;6.80;;;;;;;;5313064;27;8810;-75
2023/01/21 04:29:50;;;;;;;;;17.60;16.80;;;;;;;;5313483;27;9535;-74
2023/01/21 04:32:21;;;;;;;;;5.00;5.00;;;;;;;;5331244;27;8883;-79
2023/01/21 04:34:52;;;;;;;;;7.00;7.00;;;;;;;;5295720;27;11415;-78
2023/01/21 04:37:41;;;;;;;;;4.00;4.00;;;;;;;;5313131;27;8772;-74
2023/01/21 04:40:31;;;;;;;;;4.60;4.60;;;;;;;;5331165;27;8768;-76
2023/01/21 04:43:02;;;;;;;;;4.80;4.80;;;;;;;;5295586;27;8752;-76
2023/01/21 04:45:33;;;;;;;;;2.80;2.80;;;;;;;;5295869;27;8776;-76
2023/01/21 04:48:04;;;;;;;;;3.00;3.00;;;;;;;;5312889;27;8756;-76
2023/01/21 04:50:35;;;;;;;;;3.75;3.25;;;;;;;;5312891;27;8790;-76
2023/01/21 04:53:06;;;;;;;;;7.00;7.00;;;;;;;;5295905;27;9965;-76
2023/01/21 04:55:36;;;;;;;;;3.75;3.75;;;;;;;;5312913;27;8768;-75
2023/01/21 04:58:26;;;;;;;;;5.20;4.00;;;;;;;;5297794;27;9522;-77
2023/01/21 05:00:57;;;;;;;;;4.60;4.60;;;;;;;;5295784;27;8744;-77
2023/01/21 05:03:28;;;;;;;;;4.00;4.00;;;;;;;;5312564;27;9631;-77
2023/01/21 05:06:17;;;;;;;;;5.20;5.20;;;;;;;;5331685;27;8752;-78
2023/01/21 05:08:48;;;;;;;;;8.50;8.50;;;;;;;;5278584;27;8845;-77
2023/01/21 05:11:19;;;;;;;;;11.75;9.75;;;;;;;;5312134;27;11396;-72
2023/01/21 05:13:50;;;;;;;;;7.80;6.20;;;;;;;;5294987;27;8819;-72
2023/01/21 05:16:39;;;;;;;;;9.00;9.00;;;;;;;;5298730;27;8834;-72
2023/01/21 05:19:11;;;;;;;;;6.20;6.20;;;;;;;;5295649;27;8795;-72
2023/01/21 05:21:42;;;;;;;;;7.00;7.00;;;;;;;;5295366;27;8780;-74
2023/01/21 05:24:31;;;;;;;;;4.00;4.00;;;;;;;;5298246;27;8784;-73
2023/01/21 05:27:03;;;;;;;;;10.00;10.00;;;;;;;;5279006;27;8783;-73
2023/01/21 05:33:14;;;;;;;;;6.40;6.40;;;;;;;;5311800;27;8804;-73
2023/01/21 05:44:28;;;;;;;;;8.20;8.20;;;;;;;;5311574;27;8786;-73
2023/01/21 05:47:00;;;;;;;;;5.20;5.20;;;;;;;;5261287;27;8940;-75
2023/01/21 05:49:31;;;;;;;;;6.80;6.80;;;;;;;;5294790;27;9596;-74
2023/01/21 05:52:02;;;;;;;;;5.60;5.60;;;;;;;;5277438;27;8790;-74
2023/01/21 05:54:34;;;;;;;;;2.20;2.20;;;;;;;;5294464;27;8952;-75
2023/01/21 05:57:05;;;;;;;;;5.40;5.40;;;;;;;;5294755;27;8838;-74
2023/01/21 05:59:36;;;;;;;;;6.40;6.40;;;;;;;;5277585;27;8821;-74
2023/01/21 06:02:07;;;;;;;;;3.00;3.00;;;;;;;;5277968;27;8790;-74
2023/01/21 06:04:38;;;;;;;;;6.00;6.00;;;;;;;;5294290;27;8820;-72
2023/01/21 06:07:09;;;;;;;;;13.00;13.00;;;;;;;;5313521;27;8790;-74
2023/01/21 06:09:40;;;;;;;;;18.00;17.20;;;;;;;;5293632;27;11432;-72
2023/01/21 06:12:11;;;;;;;;;17.20;16.80;;;;;;;;5260601;27;8861;-73
2023/01/21 06:19:13;;;;;;;;;10.00;9.40;;;;;;;;5312087;27;11443;-73
2023/01/21 06:21:46;;;;;;;;;11.40;11.00;;;;;;;;5259921;27;8761;-74
2023/01/21 06:28:59;;;;;;;;;6.60;6.60;;;;;;;;5333658;27;9411;-69
2023/01/21 06:31:30;;;;;;;;;9.80;9.80;;;;;;;;5281078;27;8933;-68
2023/01/21 06:38:25;;;;;;;;;7.80;7.80;;;;;;;;5333218;27;9458;-68
2023/01/21 06:41:14;;;;;;;;;13.60;12.80;;;;;;;;5300519;27;8740;-68
2023/01/21 06:44:04;;;;;;;;;15.20;15.20;;;;;;;;5334064;27;8830;-69
2023/01/21 06:46:35;;;;;;;;;12.00;12.00;;;;;;;;5314927;27;8768;-69
2023/01/21 06:49:07;;;;;;;;;12.60;12.60;;;;;;;;5333839;27;8811;-69
2023/01/21 06:51:38;;;;;;;;;11.00;10.80;;;;;;;;5333313;27;8792;-69
2023/01/21 06:54:10;;;;;;;;;17.00;17.00;;;;;;;;5292756;27;8864;-68
2023/01/21 06:56:42;;;;;;;;;28.00;25.80;;;;;;;;5294211;27;8783;-68
2023/01/21 06:59:13;;;;;;;;;18.00;16.40;;;;;;;;5310517;27;8794;-68
2023/01/21 07:01:44;;;;;;;;;3.00;3.00;;;;;;;;5310043;27;8764;-68
2023/01/21 07:04:15;;;;;;;;;8.40;8.00;;;;;;;;5310280;27;8767;-69
2023/01/21 07:06:46;;;;;;;;;8.40;8.40;;;;;;;;5310876;27;8786;-68
2023/01/21 07:09:18;;;;;;;;;7.20;7.20;;;;;;;;5311137;27;8798;-69
2023/01/21 07:11:49;;;;;;;;;7.40;7.40;;;;;;;;5310228;27;8779;-68
2023/01/21 07:14:20;;;;;;;;;6.60;6.00;;;;;;;;5292744;27;8861;-69
2023/01/21 07:16:51;;;;;;;;;10.00;10.00;;;;;;;;5310262;27;9445;-69
2023/01/21 07:19:22;;;;;;;;;8.40;8.40;;;;;;;;5309724;27;11480;-68
2023/01/21 07:21:53;;;;;;;;;12.00;10.60;;;;;;;;5310090;27;8771;-68
2023/01/21 07:24:24;;;;;;;;;16.00;13.60;;;;;;;;5310261;27;8779;-68
2023/01/21 07:26:56;;;;;;;;;20.50;20.50;;;;;;;;5310430;27;8782;-68
2023/01/21 07:29:27;;;;;;;;;21.20;21.20;;;;;;;;5311260;27;11396;-69
2023/01/21 07:32:17;;;;;;;;;13.80;13.80;;;;;;;;5310419;27;8771;-68
2023/01/21 07:34:48;;;;;;;;;14.40;14.00;;;;;;;;5292326;27;9446;-69
2023/01/21 07:37:19;;;;;;;;;20.40;19.20;;;;;;;;5309848;27;8787;-69
2023/01/21 07:39:50;;;;;;;;;13.00;13.00;;;;;;;;5292842;27;8865;-67
2023/01/21 07:42:21;;;;;;;;;13.00;13.00;;;;;;;;5292095;27;9446;-69
2023/01/21 07:44:53;;;;;;;;;14.20;14.20;;;;;;;;5291494;27;8779;-68
2023/01/21 07:47:25;;;;;;;;;10.20;10.20;;;;;;;;5292806;27;8862;-69
2023/01/21 07:49:56;;;;;;;;;18.40;18.40;;;;;;;;5310125;27;8810;-70
2023/01/21 07:52:31;;;;;;;;;9.60;9.60;;;;;;;;5293311;27;9447;-67
2023/01/21 07:55:02;;;;;;;;;14.80;14.80;;;;;;;;5292254;27;8829;-68
2023/01/21 07:57:34;;;;;;;;;16.40;16.40;;;;;;;;5309478;27;8779;-67
2023/01/21 08:00:05;;;;;;;;;7.20;7.20;;;;;;;;5310330;27;8799;-66
2023/01/21 08:02:43;;;;;;;;;13.00;13.00;;;;;;;;5309750;27;9448;-67
2023/01/21 08:05:14;;;;;;;;;11.00;11.00;;;;;;;;5310946;27;8775;-69
2023/01/21 08:08:03;;;;;;;;;8.80;8.80;;;;;;;;5309573;27;8798;-67
2023/01/21 08:10:34;;;;;;;;;8.20;8.20;;;;;;;;5311149;27;8794;-69
2023/01/21 08:13:06;;;;;;;;;16.25;15.00;;;;;;;;5292761;27;8783;-67
2023/01/21 08:15:37;;;;;;;;;27.20;26.40;;;;;;;;5292029;27;8779;-69
2023/01/21 08:18:29;;;;;;;;;15.20;15.20;;;;;;;;5308460;27;8850;-68
2023/01/21 08:21:00;;;;;;;;;21.60;19.60;;;;;;;;5291751;27;8799;-68
2023/01/21 08:23:49;;;;;;;;;16.60;16.00;;;;;;;;5308234;27;9439;-69
2023/01/21 08:26:45;;;;;;;;;9.60;9.20;;;;;;;;5307843;27;8860;-68
2023/01/21 08:29:16;;;;;;;;;9.20;9.20;;;;;;;;5270330;27;8807;-69
2023/01/21 08:32:05;;;;;;;;;20.80;19.00;;;;;;;;5288723;28;9478;-69
2023/01/21 08:39:04;;;;;;;;;17.00;16.80;;;;;;;;5288397;28;8887;-69
2023/01/21 08:41:35;;;;;;;;;7.00;7.00;;;;;;;;5253827;28;8773;-69
2023/01/21 08:44:06;;;;;;;;;9.20;9.00;;;;;;;;5270792;28;8825;-70
2023/01/21 08:46:37;;;;;;;;;10.20;10.20;;;;;;;;5270595;28;8970;-68
2023/01/21 08:49:08;;;;;;;;;11.00;10.00;;;;;;;;5253222;28;8891;-69
2023/01/21 08:51:40;;;;;;;;;9.80;9.80;;;;;;;;5270015;28;9283;-69
2023/01/21 08:54:11;;;;;;;;;9.20;9.20;;;;;;;;5261378;28;8802;-69
2023/01/21 08:56:42;;;;;;;;;15.00;15.00;;;;;;;;5288000;28;9441;-69
2023/01/21 08:59:32;;;;;;;;;13.00;13.00;;;;;;;;5287548;28;8774;-68
2023/01/21 09:02:03;;;;;;;;;12.20;12.20;;;;;;;;5288484;28;8789;-70
2023/01/21 09:04:34;;;;;;;;;18.60;18.60;;;;;;;;5304337;28;8762;-69
2023/01/21 09:07:05;;;;;;;;;16.25;16.25;;;;;;;;5288475;28;8769;-68
2023/01/21 09:09:36;;;;;;;;;17.00;17.00;;;;;;;;5288145;28;8777;-68
2023/01/21 09:12:07;;;;;;;;;17.80;17.80;;;;;;;;5286978;28;8874;-68
2023/01/21 09:14:38;;;;;;;;;24.60;24.20;;;;;;;;5289233;28;8786;-68
2023/01/21 09:17:09;;;;;;;;;14.60;14.60;;;;;;;;5309631;28;8858;-68
2023/01/21 09:19:40;;;;;;;;;18.00;18.00;;;;;;;;5296737;28;8841;-68
2023/01/21 09:22:12;;;;;;;;;12.75;11.75;;;;;;;;5294170;28;8804;-67
2023/01/21 09:24:43;;;;;;;;;21.20;21.20;;;;;;;;5274284;28;11169;-67
2023/01/21 09:27:14;;;;;;;;;18.00;17.40;;;;;;;;5292039;28;8839;-68
2023/01/21 09:29:45;;;;;;;;;13.00;12.25;;;;;;;;5290870;28;9485;-68
2023/01/21 09:32:16;;;;;;;;;20.00;15.25;;;;;;;;5291073;28;11452;-68
2023/01/21 09:34:47;;;;;;;;;21.00;21.00;;;;;;;;5292649;28;8893;-67
2023/01/21 09:37:37;;;;;;;;;48.20;45.80;;;;;;;;5292022;28;9537;-68
2023/01/21 09:40:14;;;;;;;;;30.60;28.20;;;;;;;;5290513;28;8810;-68
2023/01/21 09:42:46;;;;;;;;;22.20;22.20;;;;;;;;5290795;28;8770;-68
2023/01/21 09:45:17;;;;;;;;;15.00;15.00;;;;;;;;5290396;28;8797;-68
2023/01/21 09:47:49;;;;;;;;;17.00;17.00;;;;;;;;5273344;28;8785;-69
2023/01/21 09:50:21;;;;;;;;;15.00;13.40;;;;;;;;5291248;28;8822;-69
2023/01/21 09:53:20;;;;;;;;;19.60;19.60;;;;;;;;5294512;27;8810;-68
2023/01/21 09:55:52;;;;;;;;;18.80;18.80;;;;;;;;5312509;27;8796;-68
2023/01/21 09:58:23;;;;;;;;;18.00;15.20;;;;;;;;5294537;27;8817;-68
2023/01/21 10:01:07;;;;;;;;;14.75;14.00;;;;;;;;5312949;27;8762;-68
2023/01/21 10:03:53;;;;;;;;;17.60;17.60;;;;;;;;5313219;27;9548;-67
2023/01/21 10:06:45;;;;;;;;;15.80;12.80;;;;;;;;5311322;27;8952;-67
2023/01/21 10:09:35;;;;;;;;;8.80;8.80;;;;;;;;5277194;27;8770;-67
2023/01/21 10:12:09;;;;;;;;;20.80;19.40;;;;;;;;5294403;27;8808;-67
2023/01/21 10:14:58;;;;;;;;;13.40;13.40;;;;;;;;5323832;27;8788;-69
2023/01/21 10:17:40;;;;;;;;;10.80;10.80;;;;;;;;5334081;27;8770;-68
2023/01/21 10:20:35;;;;;;;;;16.60;15.00;;;;;;;;5298553;27;9557;-68
2023/01/21 10:23:32;;;;;;;;;15.40;13.80;;;;;;;;5333542;27;8772;-68
2023/01/21 10:26:07;;;;;;;;;19.00;18.20;;;;;;;;5298475;27;8814;-67
2023/01/21 10:28:40;;;;;;;;;11.60;11.60;;;;;;;;5315148;27;8792;-68
2023/01/21 10:31:20;;;;;;;;;33.00;31.40;;;;;;;;5280173;27;8800;-68
2023/01/21 10:33:53;;;;;;;;;25.40;25.00;;;;;;;;5315575;27;8841;-68
2023/01/21 10:36:48;;;;;;;;;22.40;21.60;;;;;;;;5315046;27;8846;-68
2023/01/21 10:39:22;;;;;;;;;20.40;19.80;;;;;;;;5297804;27;8875;-68
2023/01/21 10:42:11;;;;;;;;;23.40;22.80;;;;;;;;5334016;27;8795;-68
2023/01/21 10:45:04;;;;;;;;;22.60;22.60;;;;;;;;5300446;27;8845;-68
2023/01/21 10:48:03;;;;;;;;;26.40;24.20;;;;;;;;5333741;27;8775;-68
2023/01/21 10:50:37;;;;;;;;;31.40;30.80;;;;;;;;5315318;27;8890;-68
2023/01/21 10:53:26;;;;;;;;;25.40;24.20;;;;;;;;5295881;27;8803;-69
2023/01/21 10:56:06;;;;;;;;;21.00;20.00;;;;;;;;5293338;27;8751;-68
2023/01/21 10:58:52;;;;;;;;;21.80;21.80;;;;;;;;5311117;27;8806;-68
2023/01/21 11:01:28;;;;;;;;;17.00;17.00;;;;;;;;5293277;27;8771;-68
2023/01/21 11:04:03;;;;;;;;;12.40;11.40;;;;;;;;5276828;27;8775;-69
2023/01/21 11:06:35;;;;;;;;;17.20;16.80;;;;;;;;5293540;27;9422;-68
2023/01/21 11:09:09;;;;;;;;;19.20;19.20;;;;;;;;5310471;27;8783;-68
2023/01/21 11:11:41;;;;;;;;;18.80;18.80;;;;;;;;5310470;27;8822;-68
2023/01/21 11:14:12;;;;;;;;;18.80;18.80;;;;;;;;5311643;27;8818;-68
2023/01/21 11:16:50;;;;;;;;;14.00;14.00;;;;;;;;5311009;27;8775;-67
2023/01/21 11:19:21;;;;;;;;;22.20;21.60;;;;;;;;5311055;27;11097;-68
2023/01/21 11:22:03;;;;;;;;;7.00;7.00;;;;;;;;5309931;27;8874;-67
2023/01/21 11:24:44;;;;;;;;;20.60;20.60;;;;;;;;5309630;27;10353;-69
2023/01/21 11:27:33;;;;;;;;;21.60;20.60;;;;;;;;5309996;27;8794;-67
2023/01/21 11:30:05;;;;;;;;;21.60;20.40;;;;;;;;5310877;27;8775;-69
2023/01/21 11:32:36;;;;;;;;;11.00;11.00;;;;;;;;5309857;27;8845;-67
2023/01/21 11:35:09;;;;;;;;;14.75;14.75;;;;;;;;5311219;27;8775;-70
2023/01/21 11:37:43;;;;;;;;;16.80;14.20;;;;;;;;5292759;27;11464;-68
2023/01/21 11:40:32;;;;;;;;;18.40;18.40;;;;;;;;5310724;27;8945;-67
2023/01/21 11:43:03;;;;;;;;;16.25;14.75;;;;;;;;5291640;27;8906;-66
2023/01/21 11:45:37;;;;;;;;;17.25;16.50;;;;;;;;5292583;27;8784;-67
2023/01/21 11:48:20;;;;;;;;;17.40;16.80;;;;;;;;5309643;27;10032;-65
2023/01/21 11:51:04;;;;;;;;;14.60;14.00;;;;;;;;5309344;27;8799;-66
2023/01/21 11:54:20;;;;;;;;;23.20;20.20;;;;;;;;5320814;27;8904;-65
2023/01/21 11:56:58;;;;;;;;;22.20;19.60;;;;;;;;5309831;27;9519;-67
2023/01/21 11:59:33;;;;;;;;;22.20;21.00;;;;;;;;5313326;27;8778;-65
2023/01/21 12:02:19;;;;;;;;;29.80;27.80;;;;;;;;5296719;27;8762;-63
2023/01/21 12:04:52;;;;;;;;;23.80;23.80;;;;;;;;5332687;27;8781;-65
2023/01/21 12:07:25;;;;;;;;;22.20;22.20;;;;;;;;5296163;27;8904;-67
2023/01/21 12:10:07;;;;;;;;;22.80;22.80;;;;;;;;5312848;27;8789;-67
2023/01/21 12:12:56;;;;;;;;;20.40;20.40;;;;;;;;5331957;27;8785;-67
2023/01/21 12:15:45;;;;;;;;;13.80;13.80;;;;;;;;5316219;27;8765;-67
2023/01/21 12:18:25;;;;;;;;;11.25;11.25;;;;;;;;5331249;27;8750;-67
2023/01/21 12:21:10;;;;;;;;;20.00;20.00;;;;;;;;5332033;27;8738;-67
2023/01/21 12:24:00;;;;;;;;;26.60;24.00;;;;;;;;5313214;27;9480;-67
2023/01/21 12:26:54;;;;;;;;;23.80;22.20;;;;;;;;5332141;27;8784;-68
2023/01/21 12:29:31;;;;;;;;;22.80;20.60;;;;;;;;5295470;27;8845;-67
2023/01/21 12:32:08;;;;;;;;;13.60;12.60;;;;;;;;5331618;27;8738;-67
2023/01/21 12:34:42;;;;;;;;;13.60;12.80;;;;;;;;5312758;27;8900;-66
2023/01/21 12:37:18;;;;;;;;;15.00;15.00;;;;;;;;5330729;27;8788;-66
2023/01/21 12:39:51;;;;;;;;;25.20;25.20;;;;;;;;5296454;27;8773;-66
2023/01/21 12:42:30;;;;;;;;;29.20;29.20;;;;;;;;5314022;27;8753;-68
2023/01/21 12:45:18;;;;;;;;;24.80;24.20;;;;;;;;5331295;27;8769;-66
2023/01/21 12:47:49;;;;;;;;;33.80;29.80;;;;;;;;5331058;27;8737;-66
2023/01/21 12:50:29;;;;;;;;;27.50;26.50;;;;;;;;5295212;27;8777;-66
2023/01/21 12:53:00;;;;;;;;;31.60;31.60;;;;;;;;5298087;27;11457;-66
2023/01/21 12:55:38;;;;;;;;;15.50;15.50;;;;;;;;5319658;27;8762;-66
2023/01/21 12:58:14;;;;;;;;;20.80;20.80;;;;;;;;5319578;27;8749;-66
2023/01/21 13:00:46;;;;;;;;;15.20;15.20;;;;;;;;5302592;27;8753;-67
2023/01/21 13:03:23;;;;;;;;;19.80;19.80;;;;;;;;5319615;27;8750;-68
2023/01/21 13:06:12;;;;;;;;;13.00;13.00;;;;;;;;5302188;27;8766;-67
2023/01/21 13:08:55;;;;;;;;;22.80;22.80;;;;;;;;5337954;27;8762;-66
2023/01/21 13:11:28;;;;;;;;;15.00;14.40;;;;;;;;5302102;27;8936;-66
2023/01/21 13:13:59;;;;;;;;;4.00;4.00;;;;;;;;5319650;27;8781;-66
2023/01/21 13:16:31;;;;;;;;;25.00;23.50;;;;;;;;5319313;27;8866;-67
2023/01/21 13:19:03;;;;;;;;;14.20;12.60;;;;;;;;5338400;27;12304;-67
2023/01/21 13:21:34;;;;;;;;;20.60;20.00;;;;;;;;5319672;27;9432;-68
2023/01/21 13:24:20;;;;;;;;;17.75;17.75;;;;;;;;5337395;27;8770;-68
2023/01/21 13:27:04;;;;;;;;;26.80;24.40;;;;;;;;5319350;27;11387;-68
2023/01/21 13:30:11;;;;;;;;;20.40;18.60;;;;;;;;5338564;27;8765;-68
2023/01/21 13:33:19;;;;;;;;;37.80;34.80;;;;;;;;5337893;27;9456;-67
2023/01/21 13:35:59;;;;;;;;;16.40;15.00;;;;;;;;5337441;27;8873;-67
2023/01/21 13:38:54;;;;;;;;;19.80;18.80;;;;;;;;5301982;27;8801;-68
2023/01/21 13:41:44;;;;;;;;;18.40;18.00;;;;;;;;5338287;27;8784;-68
2023/01/21 13:44:53;;;;;;;;;20.20;17.60;;;;;;;;5318966;27;8778;-68
2023/01/21 13:47:41;;;;;;;;;22.00;21.40;;;;;;;;5338170;27;9408;-67
2023/01/21 13:50:21;;;;;;;;;19.00;16.00;;;;;;;;5337834;27;8769;-67
2023/01/21 13:52:52;;;;;;;;;20.80;19.20;;;;;;;;5318738;27;9433;-67
2023/01/21 13:55:23;;;;;;;;;15.00;15.00;;;;;;;;5302272;27;8774;-68
2023/01/21 13:58:12;;;;;;;;;21.75;19.00;;;;;;;;5319312;27;9833;-68
2023/01/21 14:00:52;;;;;;;;;16.60;16.60;;;;;;;;5337433;27;8769;-68
2023/01/21 14:03:23;;;;;;;;;16.00;15.80;;;;;;;;5337991;27;8762;-68
2023/01/21 14:14:50;;;;;;;;;13.40;13.40;;;;;;;;5333739;27;8761;-68
2023/01/21 14:17:33;;;;;;;;;19.80;19.80;;;;;;;;5298254;27;8777;-68
2023/01/21 14:20:23;;;;;;;;;19.40;19.00;;;;;;;;5315554;27;8778;-68
2023/01/21 14:22:54;;;;;;;;;13.00;12.80;;;;;;;;5334564;27;8818;-68
2023/01/21 14:29:48;;;;;;;;;16.80;16.80;;;;;;;;5333249;27;8842;-68
2023/01/21 14:41:06;;;;;;;;;20.20;17.60;;;;;;;;5324094;27;8769;-68
2023/01/21 14:43:39;;;;;;;;;15.80;15.80;;;;;;;;5314895;27;8758;-67
2023/01/21 14:46:25;;;;;;;;;15.00;14.00;;;;;;;;5315048;27;8772;-68
2023/01/21 14:49:34;;;;;;;;;55.80;48.00;;;;;;;;5315357;27;8789;-67
2023/01/21 15:00:49;;;;;;;;;13.40;13.00;;;;;;;;5311713;27;8746;-69
2023/01/21 15:03:47;;;;;;;;;13.60;13.60;;;;;;;;5279468;27;8754;-67
2023/01/21 15:06:20;;;;;;;;;18.20;16.40;;;;;;;;5293100;27;8813;-69
2023/01/21 15:08:55;;;;;;;;;24.40;24.00;;;;;;;;5259440;27;8818;-69
2023/01/21 15:11:44;;;;;;;;;27.00;25.60;;;;;;;;5278791;27;8805;-67
2023/01/21 15:14:35;;;;;;;;;36.40;32.20;;;;;;;;5311577;27;8952;-68
2023/01/21 15:17:30;;;;;;;;;39.20;37.80;;;;;;;;5275800;27;8771;-68
2023/01/21 15:20:20;;;;;;;;;29.00;27.60;;;;;;;;5248269;27;8809;-68
2023/01/21 15:23:11;;;;;;;;;42.00;37.80;;;;;;;;5275909;27;8908;-69
2023/01/21 15:26:01;;;;;;;;;46.20;42.80;;;;;;;;5281583;27;9473;-69
2023/01/21 15:37:18;;;;;;;;;41.60;38.40;;;;;;;;5311205;27;8706;-69
2023/01/21 15:39:51;;;;;;;;;48.40;43.80;;;;;;;;5258918;27;8794;-69
2023/01/21 15:42:37;;;;;;;;;49.60;44.80;;;;;;;;5292521;27;8786;-67
2023/01/21 15:45:14;;;;;;;;;46.00;43.40;;;;;;;;5258712;27;8785;-69
2023/01/21 15:47:53;;;;;;;;;60.60;48.00;;;;;;;;5275373;27;8770;-68
2023/01/21 15:50:29;;;;;;;;;36.20;33.40;;;;;;;;5293309;27;8789;-68
2023/01/21 15:53:19;;;;;;;;;35.20;31.80;;;;;;;;5258542;27;8774;-69
2023/01/21 15:56:02;;;;;;;;;19.20;19.20;;;;;;;;5292272;27;9537;-68
2023/01/21 15:58:39;;;;;;;;;16.20;15.60;;;;;;;;5330273;27;8830;-68
2023/01/21 16:01:16;;;;;;;;;23.20;23.20;;;;;;;;5314003;27;8779;-68
2023/01/21 16:08:16;;;;;;;;;19.60;18.00;;;;;;;;5331607;27;8708;-68
2023/01/21 16:10:57;;;;;;;;;20.20;19.80;;;;;;;;5313300;27;8792;-68
2023/01/21 16:13:56;;;;;;;;;27.00;25.00;;;;;;;;5313375;27;8804;-69
2023/01/21 16:16:59;;;;;;;;;30.00;29.20;;;;;;;;5313538;27;8784;-68
2023/01/21 16:19:34;;;;;;;;;24.60;24.20;;;;;;;;5273294;27;8926;-68
2023/01/21 16:22:06;;;;;;;;;21.80;21.80;;;;;;;;5296226;27;9366;-67
2023/01/21 16:24:41;;;;;;;;;25.00;24.60;;;;;;;;5313391;27;8775;-68
2023/01/21 16:27:16;;;;;;;;;30.00;29.60;;;;;;;;5331558;27;9658;-68
2023/01/21 16:29:53;;;;;;;;;28.00;27.80;;;;;;;;5312515;27;8926;-68
2023/01/21 16:32:25;;;;;;;;;36.00;35.60;;;;;;;;5313462;27;8803;-68
2023/01/21 16:34:57;;;;;;;;;11.00;8.80;;;;;;;;5295995;27;8794;-68
2023/01/21 16:37:28;;;;;;;;;23.60;22.40;;;;;;;;5312821;27;8780;-68
2023/01/21 16:40:20;;;;;;;;;151.00;116.25;;;;;;;;5295628;27;8824;-68
2023/01/21 16:43:23;;;;;;;;;29.20;28.80;;;;;;;;5295189;27;8772;-68
2023/01/21 16:45:56;;;;;;;;;33.20;31.40;;;;;;;;5266950;27;9478;-67
2023/01/21 16:48:28;;;;;;;;;24.20;23.80;;;;;;;;5331347;27;9580;-67
2023/01/21 16:51:00;;;;;;;;;30.00;28.40;;;;;;;;5331386;27;8772;-68
2023/01/21 16:53:31;;;;;;;;;28.60;25.60;;;;;;;;5295873;27;8768;-67
2023/01/21 16:56:04;;;;;;;;;12.75;12.75;;;;;;;;5331544;27;8835;-68
2023/01/21 16:58:35;;;;;;;;;27.40;27.00;;;;;;;;5312153;27;9480;-67
2023/01/21 17:01:14;;;;;;;;;24.00;24.00;;;;;;;;5330982;27;8780;-68